Time;durP1;ratioP1;P1;durP2;ratioP2;P2;SDS_P1;SDS_P2;PMS_P1;PMS_P2;Temp;Humidity;BMP_temperature;BMP_pressure;BME280_temperature;BME280_humidity;BME280_pressure;Samples;Min_cycle;Max_cycle;Signal;HPM_P1;HPM_P2
2021/03/19 00:01:50;;;;;;;1.55;1.05;;;19.90;45.40;;;;;;6196412;28;20089;-70
2021/03/19 00:04:51;;;;;;;1.48;0.82;;;19.90;45.40;;;;;;6196131;28;20030;-70
2021/03/19 00:07:54;;;;;;;1.10;0.60;;;19.90;45.40;;;;;;6196230;28;20109;-70
2021/03/19 00:10:54;;;;;;;1.30;1.05;;;19.90;45.40;;;;;;6210800;28;20026;-70
2021/03/19 00:13:55;;;;;;;1.63;0.90;;;19.90;45.50;;;;;;6196101;28;20397;-71
2021/03/19 00:16:55;;;;;;;1.95;1.08;;;19.90;45.30;;;;;;6195712;28;20053;-70
2021/03/19 00:19:56;;;;;;;1.65;0.70;;;19.90;45.50;;;;;;6195893;28;20030;-70
2021/03/19 00:22:56;;;;;;;2.03;0.90;;;19.90;45.30;;;;;;6196095;28;20080;-70
2021/03/19 00:25:57;;;;;;;2.15;1.17;;;19.90;45.50;;;;;;6195836;28;20023;-70
2021/03/19 00:28:58;;;;;;;0.73;0.65;;;19.90;45.50;;;;;;6195387;28;20061;-70
2021/03/19 00:31:58;;;;;;;0.93;0.60;;;19.90;45.40;;;;;;6195635;28;20517;-70
2021/03/19 00:34:59;;;;;;;1.48;0.82;;;19.90;45.40;;;;;;6195645;28;20380;-70
2021/03/19 00:37:59;;;;;;;0.82;0.73;;;19.90;45.30;;;;;;6195909;28;20469;-70
2021/03/19 00:41:00;;;;;;;1.35;1.00;;;19.90;45.30;;;;;;6194072;28;20030;-69
2021/03/19 00:44:00;;;;;;;1.27;0.80;;;19.90;45.40;;;;;;6194034;28;20037;-69
2021/03/19 00:47:01;;;;;;;1.00;0.80;;;19.90;45.30;;;;;;6195378;28;20031;-70
2021/03/19 00:50:05;;;;;;;1.45;0.70;;;19.90;45.50;;;;;;6196133;28;20054;-70
2021/03/19 00:53:06;;;;;;;1.08;0.88;;;19.90;45.40;;;;;;6209318;28;20026;-70
2021/03/19 00:56:07;;;;;;;2.35;0.85;;;19.90;45.40;;;;;;6212215;28;20027;-70
2021/03/19 00:59:07;;;;;;;1.40;0.80;;;19.90;45.50;;;;;;6195024;28;20088;-70
2021/03/19 01:02:09;;;;;;;1.42;0.68;;;19.90;45.80;;;;;;6195255;28;20470;-70
2021/03/19 01:05:18;;;;;;;0.88;0.70;;;19.90;45.50;;;;;;6194735;28;20045;-70
2021/03/19 01:08:18;;;;;;;0.85;0.70;;;19.90;45.50;;;;;;6215880;28;20485;-71
2021/03/19 01:11:19;;;;;;;0.80;0.68;;;19.90;45.30;;;;;;6212304;28;20030;-70
2021/03/19 01:14:19;;;;;;;1.50;0.82;;;19.90;45.50;;;;;;6201287;28;20113;-70
2021/03/19 01:17:20;;;;;;;0.68;0.68;;;19.80;45.40;;;;;;6204605;28;20062;-70
2021/03/19 01:20:23;;;;;;;1.50;0.80;;;19.80;45.40;;;;;;6194821;28;20444;-70
2021/03/19 01:23:24;;;;;;;0.60;0.50;;;19.80;45.40;;;;;;6208726;28;20065;-70
2021/03/19 01:26:24;;;;;;;1.17;0.65;;;19.80;45.30;;;;;;6213560;28;20263;-70
2021/03/19 01:29:25;;;;;;;1.15;0.80;;;19.80;45.40;;;;;;6195253;28;20102;-70
2021/03/19 01:32:25;;;;;;;0.80;0.75;;;19.80;45.40;;;;;;6193378;28;20027;-71
2021/03/19 01:35:29;;;;;;;0.88;0.70;;;19.80;45.50;;;;;;6195038;28;20026;-71
2021/03/19 01:38:29;;;;;;;1.15;0.68;;;19.80;45.40;;;;;;6194664;28;20034;-69
2021/03/19 01:41:30;;;;;;;1.00;0.73;;;19.80;45.30;;;;;;6194356;28;20029;-70
2021/03/19 01:44:52;;;;;;;1.05;0.70;;;19.80;45.40;;;;;;6193600;28;20080;-70
2021/03/19 01:48:30;;;;;;;0.93;0.70;;;19.80;45.40;;;;;;6193303;28;20048;-70
2021/03/19 01:52:08;;;;;;;0.82;0.70;;;19.80;45.40;;;;;;6199399;28;20504;-70
2021/03/19 01:55:46;;;;;;;0.90;0.80;;;19.80;45.40;;;;;;6199098;28;20038;-70
2021/03/19 01:59:24;;;;;;;0.65;0.60;;;19.80;45.30;;;;;;6197183;28;20034;-71
2021/03/19 02:03:01;;;;;;;0.90;0.60;;;19.80;45.40;;;;;;6199206;28;20023;-70
2021/03/19 02:06:39;;;;;;;0.70;0.60;;;19.80;45.40;;;;;;6199021;28;20027;-70
2021/03/19 02:10:17;;;;;;;0.47;0.47;;;19.80;45.30;;;;;;6198815;28;20467;-70
2021/03/19 02:13:55;;;;;;;0.80;0.60;;;19.80;45.30;;;;;;6199081;28;20041;-70
2021/03/19 02:17:33;;;;;;;1.17;0.68;;;19.80;45.30;;;;;;6198246;28;20497;-70
2021/03/19 02:21:11;;;;;;;1.05;0.70;;;19.80;45.40;;;;;;6198403;28;20062;-70
2021/03/19 02:24:49;;;;;;;1.00;0.65;;;19.80;45.30;;;;;;6198459;28;20031;-69
2021/03/19 02:28:27;;;;;;;0.88;0.77;;;19.80;45.40;;;;;;6198455;28;20030;-69
2021/03/19 02:31:59;;;;;;;0.60;0.55;;;19.80;45.40;;;;;;6198281;28;20034;-71
2021/03/19 02:35:17;;;;;;;0.80;0.68;;;19.80;45.40;;;;;;6197836;28;20433;-69
2021/03/19 02:38:17;;;;;;;0.80;0.50;;;19.80;45.40;;;;;;6194739;28;20038;-70
2021/03/19 02:41:19;;;;;;;1.02;0.85;;;19.80;45.40;;;;;;6198360;28;20056;-70
2021/03/19 02:44:20;;;;;;;0.95;0.70;;;19.80;45.40;;;;;;6216769;28;20030;-70
2021/03/19 02:47:21;;;;;;;0.85;0.50;;;19.80;45.40;;;;;;6222444;28;20112;-70
2021/03/19 02:50:21;;;;;;;0.70;0.70;;;19.90;45.50;;;;;;6199075;28;20046;-70
2021/03/19 02:53:27;;;;;;;0.93;0.80;;;19.80;45.40;;;;;;6197360;28;20026;-71
2021/03/19 02:56:28;;;;;;;1.35;0.63;;;19.80;45.40;;;;;;6198104;28;20022;-70
2021/03/19 02:59:29;;;;;;;1.02;0.63;;;19.80;45.40;;;;;;6200894;28;20041;-70
2021/03/19 03:02:29;;;;;;;1.65;0.95;;;19.80;45.50;;;;;;6197277;28;20057;-69
2021/03/19 03:05:30;;;;;;;0.70;0.60;;;19.80;45.40;;;;;;6197966;28;20040;-71
2021/03/19 03:08:31;;;;;;;0.70;0.60;;;19.80;45.40;;;;;;6197447;28;20057;-70
2021/03/19 03:11:32;;;;;;;0.52;0.50;;;19.90;45.50;;;;;;6198110;28;20117;-70
2021/03/19 03:14:32;;;;;;;0.60;0.57;;;19.80;45.40;;;;;;6197349;28;20462;-69
2021/03/19 03:17:33;;;;;;;1.20;0.80;;;19.80;45.40;;;;;;6197368;28;20505;-69
2021/03/19 03:20:40;;;;;;;0.82;0.63;;;19.80;45.40;;;;;;6197286;28;20035;-70
2021/03/19 03:23:41;;;;;;;1.05;0.65;;;19.80;45.50;;;;;;6197415;28;20026;-71
2021/03/19 03:26:42;;;;;;;1.42;1.00;;;19.80;45.40;;;;;;6197282;28;20037;-70
2021/03/19 03:29:43;;;;;;;1.67;0.90;;;19.80;45.30;;;;;;6196886;28;20117;-69
2021/03/19 03:32:44;;;;;;;1.30;0.90;;;19.80;45.50;;;;;;6197153;28;20030;-70
2021/03/19 03:35:45;;;;;;;1.77;0.90;;;19.80;45.50;;;;;;6196962;28;20452;-70
2021/03/19 03:38:46;;;;;;;1.25;0.65;;;19.80;45.40;;;;;;6196924;28;20046;-70
2021/03/19 03:41:46;;;;;;;0.98;0.70;;;19.80;45.30;;;;;;6196892;28;20049;-70
2021/03/19 03:44:47;;;;;;;0.95;0.70;;;19.80;45.40;;;;;;6196804;28;20385;-71
2021/03/19 03:47:48;;;;;;;1.02;0.73;;;19.80;45.30;;;;;;6198653;28;20049;-70
2021/03/19 03:50:48;;;;;;;1.02;0.80;;;19.80;45.40;;;;;;6217321;28;20507;-70
2021/03/19 03:53:49;;;;;;;1.75;1.10;;;19.80;46.20;;;;;;6196614;28;20034;-71
2021/03/19 03:56:49;;;;;;;1.40;0.88;;;19.80;45.40;;;;;;6195295;28;20034;-71
2021/03/19 03:59:50;;;;;;;1.20;0.68;;;19.80;45.40;;;;;;6196106;28;20130;-70
2021/03/19 04:02:51;;;;;;;1.58;0.88;;;19.80;45.40;;;;;;6195194;28;20481;-70
2021/03/19 04:05:52;;;;;;;1.77;0.93;;;19.80;45.30;;;;;;6195945;28;20551;-70
2021/03/19 04:08:52;;;;;;;1.42;0.80;;;19.80;45.50;;;;;;6194708;28;20030;-70
2021/03/19 04:11:52;;;;;;;1.17;0.90;;;19.80;45.50;;;;;;6196075;28;20027;-70
2021/03/19 04:14:53;;;;;;;0.95;0.82;;;19.80;45.50;;;;;;6195944;28;20030;-70
2021/03/19 04:18:03;;;;;;;1.67;0.93;;;19.80;45.50;;;;;;6195907;28;20136;-71
2021/03/19 04:21:07;;;;;;;1.33;1.10;;;19.80;46.10;;;;;;6203497;28;20389;-70
2021/03/19 04:24:08;;;;;;;1.13;0.83;;;19.80;45.40;;;;;;6220148;28;20030;-70
2021/03/19 04:27:13;;;;;;;2.17;1.23;;;19.80;45.40;;;;;;6197197;28;20022;-70
2021/03/19 04:30:41;;;;;;;;;;;19.80;45.30;;;;;;6196223;28;20030;-70
2021/03/19 04:33:41;;;;;;;1.50;0.98;;;19.80;45.30;;;;;;6193338;28;20312;-70
2021/03/19 04:36:46;;;;;;;2.10;1.20;;;19.80;45.30;;;;;;6195577;28;20041;-70
2021/03/19 04:39:49;;;;;;;2.97;1.38;;;19.80;45.40;;;;;;6203699;28;20052;-70
2021/03/19 04:42:49;;;;;;;2.33;1.10;;;19.80;45.30;;;;;;6212516;28;20045;-69
2021/03/19 04:45:50;;;;;;;1.38;0.90;;;19.80;45.40;;;;;;6209565;28;20482;-70
2021/03/19 04:48:51;;;;;;;1.83;1.20;;;19.80;45.30;;;;;;6214253;28;20374;-70
2021/03/19 04:51:51;;;;;;;2.35;1.40;;;19.80;45.40;;;;;;6203160;28;20045;-70
2021/03/19 04:54:52;;;;;;;2.17;1.20;;;19.80;45.50;;;;;;6195670;28;20034;-70
2021/03/19 04:57:52;;;;;;;2.97;1.40;;;19.80;45.40;;;;;;6195241;28;20040;-69
2021/03/19 05:00:53;;;;;;;2.85;1.40;;;19.80;45.50;;;;;;6193636;28;20054;-68
2021/03/19 05:03:54;;;;;;;2.13;1.20;;;19.80;45.40;;;;;;6195717;28;20022;-70
2021/03/19 05:07:00;;;;;;;2.75;1.30;;;19.80;45.40;;;;;;6195012;28;20062;-70
2021/03/19 05:10:03;;;;;;;1.60;1.00;;;19.80;45.40;;;;;;6195315;28;20035;-69
2021/03/19 05:13:06;;;;;;;1.23;1.00;;;19.80;45.50;;;;;;6194909;28;20027;-70
2021/03/19 05:16:06;;;;;;;1.40;1.13;;;19.80;45.40;;;;;;6195195;28;20149;-70
2021/03/19 05:19:07;;;;;;;1.73;1.10;;;19.80;45.30;;;;;;6195385;28;20035;-70
2021/03/19 05:22:08;;;;;;;2.05;1.13;;;19.80;45.30;;;;;;6194820;28;20409;-70
2021/03/19 05:25:12;;;;;;;3.33;1.40;;;19.80;45.30;;;;;;6198693;28;20030;-70
2021/03/19 05:28:13;;;;;;;1.60;1.23;;;19.80;45.30;;;;;;6198729;28;20093;-70
2021/03/19 05:31:14;;;;;;;2.40;1.35;;;19.80;45.20;;;;;;6201166;28;20113;-70
2021/03/19 05:34:15;;;;;;;1.50;1.13;;;19.80;45.20;;;;;;6199559;28;20030;-70
2021/03/19 05:37:15;;;;;;;1.58;1.23;;;19.80;45.30;;;;;;6211716;28;20045;-70
2021/03/19 05:40:35;;;;;;;1.40;1.00;;;19.80;45.20;;;;;;6223932;28;20037;-70
2021/03/19 05:43:40;;;;;;;2.35;1.40;;;19.80;45.20;;;;;;6197379;28;20393;-70
2021/03/19 05:46:45;;;;;;;3.08;1.40;;;19.80;45.30;;;;;;6199486;28;20034;-70
2021/03/19 05:49:50;;;;;;;;;;;19.80;45.20;;;;;;6200056;28;20094;-71
2021/03/19 05:52:52;;;;;;;1.85;1.00;;;19.80;45.20;;;;;;6205550;28;19906;-70
2021/03/19 05:55:53;;;;;;;1.77;1.17;;;19.80;45.20;;;;;;6196202;28;20510;-70
2021/03/19 05:58:53;;;;;;;2.67;1.20;;;19.80;45.20;;;;;;6199459;28;20106;-70
2021/03/19 06:01:54;;;;;;;1.33;1.15;;;19.80;45.30;;;;;;6199250;28;20023;-71
2021/03/19 06:05:13;;;;;;;2.28;1.30;;;19.80;45.30;;;;;;6199246;28;20392;-70
2021/03/19 06:08:27;;;;;;;2.08;1.08;;;19.80;45.20;;;;;;6199286;28;20498;-70
2021/03/19 06:11:28;;;;;;;1.95;1.20;;;19.80;45.10;;;;;;6197196;28;20121;-70
2021/03/19 06:14:32;;;;;;;2.38;1.33;;;19.80;45.20;;;;;;6199012;28;20026;-69
2021/03/19 06:17:44;;;;;;;1.38;0.90;;;19.80;45.20;;;;;;6191777;28;20051;-69
2021/03/19 06:21:07;;;;;;;4.13;1.80;;;19.80;45.30;;;;;;6174296;28;20066;-70
2021/03/19 06:24:27;;;;;;;1.98;1.40;;;19.80;45.20;;;;;;6175700;28;20069;-70
2021/03/19 06:27:38;;;;;;;3.67;1.63;;;19.80;45.00;;;;;;6177834;28;20030;-70
2021/03/19 06:30:41;;;;;;;4.47;1.55;;;19.80;45.20;;;;;;6190600;28;20097;-70
2021/03/19 06:33:42;;;;;;;3.10;1.30;;;19.80;45.10;;;;;;6183688;28;20516;-70
2021/03/19 06:37:06;;;;;;;3.85;1.60;;;19.80;45.30;;;;;;6192752;28;20065;-70
2021/03/19 06:40:21;;;;;;;2.55;1.33;;;19.80;45.20;;;;;;6174776;28;20027;-70
2021/03/19 06:43:28;;;;;;;3.22;1.40;;;19.80;45.30;;;;;;6178492;28;20023;-69
2021/03/19 06:47:00;;;;;;;5.63;1.40;;;19.80;45.30;;;;;;6195316;28;20030;-70
2021/03/19 06:50:00;;;;;;;3.60;1.52;;;19.90;45.50;;;;;;6196245;28;20022;-71
2021/03/19 06:53:24;;;;;;;2.78;1.45;;;20.00;46.50;;;;;;6184447;28;20346;-70
2021/03/19 06:56:25;;;;;;;10.82;1.73;;;20.00;45.60;;;;;;6196453;28;20437;-70
2021/03/19 06:59:28;;;;;;;3.15;1.17;;;20.00;45.70;;;;;;6190491;28;20374;-70
2021/03/19 07:02:32;;;;;;;2.42;1.23;;;19.90;45.40;;;;;;6164881;28;20490;-69
2021/03/19 07:06:13;;;;;;;4.90;1.40;;;20.00;45.90;;;;;;6171655;28;20031;-70
2021/03/19 07:09:54;;;;;;;2.45;1.20;;;19.90;45.60;;;;;;6172410;28;20023;-69
2021/03/19 07:13:06;;;;;;;2.83;1.33;;;19.90;45.70;;;;;;6160703;28;20055;-70
2021/03/19 07:16:21;;;;;;;1.88;1.17;;;19.90;45.60;;;;;;6171420;28;20097;-71
2021/03/19 07:19:30;;;;;;;1.57;1.20;;;19.90;45.60;;;;;;6171759;28;20046;-70
2021/03/19 07:22:46;;;;;;;3.53;1.80;;;19.90;45.70;;;;;;6174273;28;20269;-69
2021/03/19 07:26:08;;;;;;;7.35;2.58;;;19.80;44.80;;;;;;6196864;28;20110;-69
2021/03/19 07:29:36;;;;;;;4.68;2.40;;;19.80;43.00;;;;;;6196316;28;20061;-70
2021/03/19 07:32:48;;;;;;;3.75;2.20;;;19.80;43.20;;;;;;6175874;28;20030;-69
2021/03/19 07:36:09;;;;;;;3.88;2.38;;;19.80;43.40;;;;;;6190224;28;20053;-69
2021/03/19 07:39:24;;;;;;;6.40;1.67;;;19.80;43.60;;;;;;6190709;28;20615;-70
2021/03/19 07:42:43;;;;;;;;;;;19.80;44.00;;;;;;6197174;28;20041;-70
2021/03/19 07:46:14;;;;;;;3.45;1.80;;;19.80;44.10;;;;;;6196149;28;20434;-70
2021/03/19 07:49:32;;;;;;;7.88;1.90;;;19.80;44.30;;;;;;6195983;28;20457;-70
2021/03/19 07:53:05;;;;;;;4.45;1.90;;;19.80;44.50;;;;;;6196502;28;20055;-70
2021/03/19 07:56:31;;;;;;;2.65;1.48;;;19.80;44.50;;;;;;6183817;28;20042;-70
2021/03/19 07:59:50;;;;;;;3.00;1.67;;;19.80;44.50;;;;;;6193933;28;20225;-70
2021/03/19 08:03:29;;;;;;;3.95;1.90;;;19.80;45.40;;;;;;6196671;28;20037;-70
2021/03/19 08:06:36;;;;;;;6.40;1.50;;;19.80;44.60;;;;;;6195884;28;20065;-70
2021/03/19 08:09:47;;;;;;;5.45;1.50;;;19.80;44.70;;;;;;6194890;28;20486;-70
2021/03/19 08:13:08;;;;;;;7.47;1.40;;;19.80;44.90;;;;;;6189981;28;20452;-69
2021/03/19 08:16:14;;;;;;;4.47;1.52;;;19.80;44.80;;;;;;6171891;28;20506;-70
2021/03/19 08:19:34;;;;;;;2.63;1.30;;;19.80;44.90;;;;;;6171822;28;20390;-69
2021/03/19 08:23:20;;;;;;;7.63;1.73;;;19.80;44.90;;;;;;6171507;28;20025;-69
2021/03/19 08:26:53;;;;;;;4.10;1.60;;;19.80;44.90;;;;;;6183069;28;20066;-69
2021/03/19 08:29:57;;;;;;;8.38;1.88;;;19.80;45.00;;;;;;6177805;28;20039;-70
2021/03/19 08:33:26;;;;;;;5.25;1.70;;;19.80;44.90;;;;;;6195343;28;20033;-70
2021/03/19 08:36:41;;;;;;;2.72;1.65;;;19.80;45.00;;;;;;6193727;28;20074;-70
2021/03/19 08:39:44;;;;;;;3.22;1.65;;;19.80;45.00;;;;;;6194863;28;20050;-70
2021/03/19 08:42:49;;;;;;;4.20;1.60;;;19.80;45.00;;;;;;6194495;28;20137;-70
2021/03/19 08:46:14;;;;;;;3.60;1.77;;;19.80;45.10;;;;;;6194375;28;20026;-70
2021/03/19 08:49:23;;;;;;;3.33;1.85;;;19.80;45.30;;;;;;6194561;28;20023;-70
2021/03/19 08:52:35;;;;;;;7.43;1.88;;;19.80;44.90;;;;;;6194146;28;20050;-70
2021/03/19 08:55:37;;;;;;;3.13;1.60;;;19.80;44.90;;;;;;6194771;28;20030;-71
2021/03/19 08:58:51;;;;;;;4.43;1.95;;;19.80;45.10;;;;;;6193703;28;20026;-70
2021/03/19 09:01:54;;;;;;;12.53;1.90;;;19.80;45.00;;;;;;6194040;28;20324;-72
2021/03/19 09:04:57;;;;;;;3.72;1.88;;;19.80;44.70;;;;;;6195050;28;20019;-71
2021/03/19 09:08:27;;;;;;;10.00;1.92;;;19.80;44.80;;;;;;6194546;28;20020;-70
2021/03/19 09:11:36;;;;;;;6.43;1.70;;;19.80;45.00;;;;;;6177985;28;20106;-70
2021/03/19 09:14:44;;;;;;;2.70;1.63;;;19.80;45.20;;;;;;6170625;28;20058;-71
2021/03/19 09:17:47;;;;;;;5.55;1.50;;;19.80;45.10;;;;;;6174471;28;20066;-70
2021/03/19 09:21:25;;;;;;;3.60;1.63;;;19.80;45.20;;;;;;6194452;28;20432;-71
2021/03/19 09:24:26;;;;;;;5.55;2.55;;;19.80;45.10;;;;;;6194527;28;20030;-70
2021/03/19 09:27:31;;;;;;;2.97;1.58;;;19.80;45.20;;;;;;6193678;28;20049;-71
2021/03/19 09:30:50;;;;;;;4.35;1.48;;;19.80;45.20;;;;;;6191621;28;20109;-71
2021/03/19 09:33:50;;;;;;;2.92;1.70;;;19.80;45.10;;;;;;6172176;28;20039;-70
2021/03/19 09:37:09;;;;;;;3.53;1.70;;;19.80;45.90;;;;;;6194251;28;20069;-71
2021/03/19 09:40:39;;;;;;;2.55;1.60;;;19.80;45.20;;;;;;6194284;28;20097;-70
2021/03/19 09:43:50;;;;;;;2.80;1.67;;;19.80;45.20;;;;;;6194268;28;20034;-70
2021/03/19 09:46:59;;;;;;;4.90;1.75;;;19.80;45.30;;;;;;6193466;28;20027;-70
2021/03/19 09:50:11;;;;;;;3.97;1.75;;;19.80;45.30;;;;;;6193077;28;20122;-70
2021/03/19 09:53:14;;;;;;;5.70;1.60;;;19.80;45.30;;;;;;6194320;28;20029;-71
2021/03/19 09:56:19;;;;;;;2.55;1.70;;;19.80;45.50;;;;;;6193924;28;20018;-70
2021/03/19 09:59:26;;;;;;;3.90;1.45;;;19.80;45.60;;;;;;6194024;28;20061;-70
2021/03/19 10:02:34;;;;;;;4.40;1.63;;;19.80;46.20;;;;;;6190364;28;20169;-70
2021/03/19 10:05:37;;;;;;;3.63;1.55;;;19.80;45.60;;;;;;6194076;28;20044;-71
2021/03/19 10:08:37;;;;;;;2.05;1.30;;;19.80;45.60;;;;;;6192926;28;20038;-71
2021/03/19 10:11:57;;;;;;;2.95;1.40;;;19.80;45.50;;;;;;6180300;28;20061;-70
2021/03/19 10:15:15;;;;;;;3.67;1.30;;;19.80;45.60;;;;;;6174565;28;20105;-71
2021/03/19 10:18:28;;;;;;;2.20;1.25;;;19.80;45.60;;;;;;6173994;28;20090;-70
2021/03/19 10:21:46;;;;;;;4.75;1.65;;;19.80;45.50;;;;;;6174242;28;20032;-70
2021/03/19 10:24:47;;;;;;;7.72;1.60;;;19.80;45.50;;;;;;6175293;28;20482;-70
2021/03/19 10:27:51;;;;;;;2.65;1.50;;;19.80;45.50;;;;;;6175137;28;20027;-71
2021/03/19 10:31:04;;;;;;;2.17;1.10;;;19.80;45.50;;;;;;6175204;28;20297;-70
2021/03/19 10:34:17;;;;;;;2.40;1.17;;;19.80;45.40;;;;;;6175268;28;20452;-70
2021/03/19 10:37:41;;;;;;;2.88;1.45;;;19.80;45.40;;;;;;6175711;28;20173;-71
2021/03/19 10:40:46;;;;;;;2.13;1.17;;;19.80;45.30;;;;;;6174809;28;20042;-70
2021/03/19 10:43:52;;;;;;;3.90;1.17;;;19.80;45.20;;;;;;6174729;28;20497;-71
2021/03/19 10:47:01;;;;;;;5.00;1.10;;;19.80;45.40;;;;;;6174714;28;20553;-71
2021/03/19 10:50:09;;;;;;;4.95;1.33;;;19.80;45.20;;;;;;6173858;28;20027;-71
2021/03/19 10:53:19;;;;;;;2.08;1.20;;;19.80;45.30;;;;;;6174833;28;20015;-70
2021/03/19 10:56:20;;;;;;;2.40;1.42;;;19.80;45.10;;;;;;6174348;28;20402;-71
2021/03/19 10:59:26;;;;;;;1.95;1.30;;;19.80;45.30;;;;;;6179480;28;20069;-71
2021/03/19 11:02:29;;;;;;;1.95;1.20;;;19.80;45.00;;;;;;6173363;28;20181;-70
2021/03/19 11:05:30;;;;;;;3.63;1.58;;;19.80;45.00;;;;;;6174046;28;20061;-71
2021/03/19 11:08:30;;;;;;;1.80;1.20;;;19.80;45.30;;;;;;6175405;28;20027;-71
2021/03/19 11:11:32;;;;;;;3.97;1.20;;;19.80;45.30;;;;;;6174910;28;20026;-71
2021/03/19 11:14:32;;;;;;;2.65;1.20;;;19.80;45.00;;;;;;6175341;28;20023;-70
2021/03/19 11:17:33;;;;;;;2.78;1.40;;;19.80;44.70;;;;;;6174613;28;20520;-71
2021/03/19 11:20:35;;;;;;;2.78;1.38;;;19.80;44.80;;;;;;6173282;28;20393;-71
2021/03/19 11:23:46;;;;;;;2.15;1.17;;;19.80;44.80;;;;;;6172831;28;20041;-71
2021/03/19 11:27:11;;;;;;;1.77;0.93;;;19.80;44.70;;;;;;6175282;28;20077;-71
2021/03/19 11:30:29;;;;;;;3.42;1.50;;;19.80;44.60;;;;;;6174734;28;20470;-71
2021/03/19 11:33:50;;;;;;;2.00;1.10;;;19.80;44.50;;;;;;6174712;28;20031;-71
2021/03/19 11:36:59;;;;;;;12.18;1.20;;;19.80;44.40;;;;;;6174929;28;20034;-71
2021/03/19 11:40:20;;;;;;;1.85;1.13;;;19.80;44.50;;;;;;6174533;28;20038;-71
2021/03/19 11:43:21;;;;;;;1.77;1.15;;;19.80;44.60;;;;;;6175025;28;20058;-71
2021/03/19 11:46:22;;;;;;;1.30;1.00;;;19.80;44.60;;;;;;6197810;28;20062;-71
2021/03/19 11:49:23;;;;;;;2.28;1.30;;;19.80;44.40;;;;;;6184700;28;20721;-71
2021/03/19 11:52:24;;;;;;;2.35;1.30;;;19.80;44.30;;;;;;6189332;28;20034;-71
2021/03/19 11:55:35;;;;;;;2.25;1.08;;;19.80;44.50;;;;;;6174451;28;20038;-71
2021/03/19 11:58:36;;;;;;;2.50;1.30;;;19.80;44.40;;;;;;6174403;28;20387;-70
2021/03/19 12:01:37;;;;;;;1.90;1.08;;;19.80;44.60;;;;;;6174363;28;20125;-71
2021/03/19 12:04:37;;;;;;;2.15;1.08;;;19.80;44.30;;;;;;6174286;28;20022;-71
2021/03/19 12:07:38;;;;;;;1.90;1.25;;;19.80;44.50;;;;;;6174228;28;20027;-71
2021/03/19 12:10:38;;;;;;;2.00;1.20;;;19.80;44.50;;;;;;6177112;28;20439;-71
2021/03/19 12:13:39;;;;;;;2.03;1.23;;;19.80;44.40;;;;;;6174113;28;20022;-71
2021/03/19 12:16:39;;;;;;;1.75;1.10;;;19.80;44.30;;;;;;6173396;28;20502;-71
2021/03/19 12:19:40;;;;;;;1.23;1.00;;;19.80;44.40;;;;;;6171695;28;20348;-71
2021/03/19 12:22:41;;;;;;;1.58;0.98;;;19.80;44.40;;;;;;6172810;28;20034;-71
2021/03/19 12:25:42;;;;;;;1.58;1.15;;;19.80;44.20;;;;;;6173526;28;20061;-71
2021/03/19 12:28:43;;;;;;;1.58;1.00;;;19.80;44.30;;;;;;6171973;28;20031;-71
2021/03/19 12:31:43;;;;;;;1.00;0.80;;;19.80;44.20;;;;;;6172658;28;20031;-71
2021/03/19 12:34:46;;;;;;;1.55;0.90;;;19.80;44.10;;;;;;6172180;28;20031;-71
2021/03/19 12:37:48;;;;;;;1.33;0.98;;;19.80;44.30;;;;;;6172616;28;20062;-71
2021/03/19 12:40:48;;;;;;;3.00;1.20;;;19.80;44.30;;;;;;6172211;28;20038;-71
2021/03/19 12:43:49;;;;;;;2.20;0.90;;;19.80;44.40;;;;;;6172355;28;20221;-71
2021/03/19 12:46:51;;;;;;;2.40;1.30;;;19.80;44.40;;;;;;6193187;28;20031;-71
2021/03/19 12:49:52;;;;;;;2.10;1.10;;;19.80;44.40;;;;;;6196415;28;20085;-71
2021/03/19 12:52:53;;;;;;;2.25;1.25;;;19.80;44.30;;;;;;6196460;28;20030;-71
2021/03/19 12:55:53;;;;;;;1.45;0.80;;;19.80;44.20;;;;;;6196610;28;20400;-71
2021/03/19 12:58:54;;;;;;;1.73;1.00;;;19.80;44.20;;;;;;6196635;28;20026;-71
2021/03/19 13:01:55;;;;;;;1.75;1.13;;;19.80;44.30;;;;;;6196134;28;20052;-71
2021/03/19 13:04:55;;;;;;;2.60;0.98;;;19.80;44.40;;;;;;6195992;28;20026;-71
2021/03/19 13:07:56;;;;;;;1.80;1.05;;;19.80;44.10;;;;;;6196175;28;20540;-71
2021/03/19 13:10:57;;;;;;;1.35;1.08;;;19.70;44.20;;;;;;6196138;28;20072;-71
2021/03/19 13:13:57;;;;;;;1.95;1.13;;;19.80;44.50;;;;;;6195242;28;20029;-71
2021/03/19 13:16:59;;;;;;;1.30;1.00;;;19.80;44.10;;;;;;6178772;28;20046;-71
2021/03/19 13:20:00;;;;;;;2.47;1.10;;;19.80;44.00;;;;;;6185126;28;20474;-70
2021/03/19 13:23:01;;;;;;;2.22;1.10;;;19.80;44.00;;;;;;6171654;28;20015;-71
2021/03/19 13:26:03;;;;;;;1.85;1.15;;;19.80;44.30;;;;;;6171918;28;20394;-70
2021/03/19 13:29:04;;;;;;;1.58;1.10;;;19.80;44.20;;;;;;6163896;28;20065;-70
2021/03/19 13:32:06;;;;;;;1.73;1.00;;;19.70;43.90;;;;;;6166256;28;20438;-71
2021/03/19 13:35:07;;;;;;;2.55;1.20;;;19.70;43.70;;;;;;6169179;28;20396;-70
2021/03/19 13:38:11;;;;;;;3.10;1.17;;;19.80;44.00;;;;;;6184366;28;20425;-71
2021/03/19 13:41:12;;;;;;;2.38;1.00;;;19.80;44.30;;;;;;6168970;28;20046;-70
2021/03/19 13:44:13;;;;;;;1.98;1.10;;;19.80;44.00;;;;;;6181376;28;20469;-70
2021/03/19 13:47:14;;;;;;;3.17;1.10;;;19.80;43.80;;;;;;6197200;28;20061;-70
2021/03/19 13:50:17;;;;;;;5.43;1.10;;;19.80;43.70;;;;;;6194602;28;20029;-68
2021/03/19 13:53:18;;;;;;;2.90;0.95;;;19.80;43.80;;;;;;6192876;28;20025;-70
2021/03/19 13:56:26;;;;;;;2.95;0.88;;;19.80;43.80;;;;;;6189540;28;20031;-71
2021/03/19 13:59:27;;;;;;;5.90;1.10;;;19.80;43.90;;;;;;6173836;28;20117;-71
2021/03/19 14:02:27;;;;;;;2.20;1.10;;;19.80;43.90;;;;;;6182540;28;20018;-71
2021/03/19 14:05:30;;;;;;;3.47;1.30;;;19.80;43.60;;;;;;6195447;28;20068;-70
2021/03/19 14:08:34;;;;;;;1.85;0.90;;;19.80;43.80;;;;;;6174356;28;20038;-71
2021/03/19 14:11:35;;;;;;;35.08;2.53;;;19.80;43.90;;;;;;6174447;28;20023;-71
2021/03/19 14:14:36;;;;;;;22.60;2.00;;;19.80;44.60;;;;;;6187337;28;20027;-71
2021/03/19 14:17:38;;;;;;;7.95;1.38;;;19.80;44.40;;;;;;6179645;28;20460;-70
2021/03/19 14:20:42;;;;;;;12.23;1.50;;;19.80;44.10;;;;;;6196874;28;20031;-71
2021/03/19 14:23:43;;;;;;;9.95;1.45;;;19.80;44.30;;;;;;6175785;28;20027;-71
2021/03/19 14:26:43;;;;;;;10.25;1.30;;;19.80;44.20;;;;;;6188089;28;20398;-71
2021/03/19 14:29:44;;;;;;;4.50;1.08;;;19.80;44.30;;;;;;6181394;28;20389;-71
2021/03/19 14:32:44;;;;;;;2.22;1.10;;;19.80;44.30;;;;;;6194063;28;20362;-71
2021/03/19 14:35:45;;;;;;;3.35;1.20;;;19.80;44.30;;;;;;6196712;28;20027;-71
2021/03/19 14:38:46;;;;;;;3.15;1.10;;;19.80;44.30;;;;;;6185984;28;20536;-71
2021/03/19 14:41:46;;;;;;;2.33;0.95;;;19.80;44.20;;;;;;6182637;28;20085;-71
2021/03/19 14:44:47;;;;;;;3.83;0.90;;;19.80;44.40;;;;;;6172870;28;20050;-71
2021/03/19 14:47:48;;;;;;;1.77;1.02;;;19.80;44.40;;;;;;6174379;28;20106;-71
2021/03/19 14:50:48;;;;;;;3.25;1.40;;;19.80;44.40;;;;;;6173362;28;20049;-71
2021/03/19 14:53:52;;;;;;;2.08;0.85;;;19.80;44.10;;;;;;6180788;28;20362;-71
2021/03/19 14:56:52;;;;;;;2.97;1.02;;;19.80;44.30;;;;;;6192482;28;20062;-71
2021/03/19 14:59:53;;;;;;;3.50;1.05;;;19.80;44.40;;;;;;6172781;28;20100;-71
2021/03/19 15:02:54;;;;;;;9.30;1.30;;;19.80;44.30;;;;;;6182001;28;20160;-71
2021/03/19 15:05:54;;;;;;;5.15;0.90;;;19.80;44.40;;;;;;6186413;28;20026;-71
2021/03/19 15:08:55;;;;;;;2.97;1.10;;;19.80;44.30;;;;;;6180745;28;20026;-71
2021/03/19 15:11:55;;;;;;;2.13;1.00;;;19.80;44.30;;;;;;6195029;28;20425;-71
2021/03/19 15:14:56;;;;;;;2.92;0.90;;;19.80;44.30;;;;;;6172133;28;20031;-71
2021/03/19 15:17:56;;;;;;;1.88;1.10;;;19.80;44.20;;;;;;6171561;28;20086;-70
2021/03/19 15:21:01;;;;;;;1.90;0.95;;;19.80;44.30;;;;;;6172385;28;20082;-70
2021/03/19 15:24:02;;;;;;;3.20;1.20;;;19.80;44.60;;;;;;6171673;28;20089;-71
2021/03/19 15:27:02;;;;;;;3.45;1.30;;;19.80;44.70;;;;;;6194647;28;20401;-70
2021/03/19 15:30:06;;;;;;;7.70;1.45;;;19.80;44.30;;;;;;6193202;28;20054;-72
2021/03/19 15:33:06;;;;;;;11.88;1.35;;;19.80;44.70;;;;;;6195665;28;21028;-70
2021/03/19 15:36:07;;;;;;;9.70;1.17;;;19.80;44.90;;;;;;6196232;28;20469;-70
2021/03/19 15:39:08;;;;;;;11.88;1.48;;;19.80;44.10;;;;;;6195273;28;20444;-70
2021/03/19 15:42:09;;;;;;;9.52;1.00;;;19.80;44.00;;;;;;6194313;28;20030;-71
2021/03/19 15:45:10;;;;;;;8.68;1.25;;;19.80;43.90;;;;;;6190759;28;20085;-70
2021/03/19 15:48:11;;;;;;;6.05;1.15;;;19.80;44.40;;;;;;6180427;28;20062;-70
2021/03/19 15:51:12;;;;;;;3.47;0.90;;;19.80;43.50;;;;;;6169914;28;20501;-70
2021/03/19 15:54:12;;;;;;;6.57;1.25;;;19.70;42.00;;;;;;6171407;28;20026;-70
2021/03/19 15:57:13;;;;;;;2.63;1.02;;;19.80;42.20;;;;;;6195438;28;20444;-70
2021/03/19 16:00:18;;;;;;;5.03;1.30;;;19.80;42.70;;;;;;6194950;28;20080;-70
2021/03/19 16:03:19;;;;;;;2.90;1.23;;;19.80;42.70;;;;;;6194862;28;20481;-70
2021/03/19 16:06:19;;;;;;;3.38;1.13;;;19.80;42.70;;;;;;6195121;28;20054;-70
2021/03/19 16:09:20;;;;;;;6.63;1.20;;;19.80;43.40;;;;;;6192797;28;20034;-70
2021/03/19 16:12:20;;;;;;;3.60;1.02;;;19.80;43.20;;;;;;6195393;28;20093;-70
2021/03/19 16:15:22;;;;;;;1.63;0.88;;;19.80;43.20;;;;;;6189065;28;20031;-70